createdAt,value
2023-04-06T00:02:36.223Z,98227.97
2023-04-06T00:05:38.997Z,98230.13
2023-04-06T00:08:42.630Z,98229.72
2023-04-06T00:11:45.442Z,98226.00
2023-04-06T00:14:48.266Z,98220.28
2023-04-06T00:17:51.230Z,98218.59
2023-04-06T00:20:53.992Z,98219.19
2023-04-06T00:23:56.963Z,98204.47
2023-04-06T00:26:59.792Z,98213.59
2023-04-06T00:30:03.348Z,98207.09
2023-04-06T00:33:06.374Z,98196.75
2023-04-06T00:36:09.288Z,98208.94
2023-04-06T00:39:12.345Z,98201.91
2023-04-06T00:42:15.606Z,98199.47
2023-04-06T00:45:18.559Z,98196.72
2023-04-06T00:48:21.517Z,98195.28
2023-04-06T00:51:24.420Z,98192.41
2023-04-06T00:54:27.365Z,98196.69
2023-04-06T00:57:30.999Z,98189.94
2023-04-06T01:00:34.770Z,98202.13
2023-04-06T01:03:39.387Z,98199.56
2023-04-06T01:06:43.268Z,98206.47
2023-04-06T01:09:46.080Z,98198.56
2023-04-06T01:12:55.741Z,98204.53
2023-04-06T01:16:17.549Z,98199.28
2023-04-06T01:19:30.514Z,98203.66
2023-04-06T01:22:34.143Z,98192.94
2023-04-06T01:25:39.402Z,98203.31
2023-04-06T01:28:45.648Z,98197.75
2023-04-06T01:31:59.702Z,98194.25
2023-04-06T01:35:02.612Z,98190.34
2023-04-06T01:38:10.282Z,98191.88
2023-04-06T01:41:14.125Z,98180.06
2023-04-06T01:44:31.638Z,98183.06
2023-04-06T01:47:43.420Z,98191.75
2023-04-06T01:50:48.653Z,98193.03
2023-04-06T01:53:57.107Z,98188.47
2023-04-06T01:57:07.951Z,98187.97
2023-04-06T02:00:31.009Z,98186.47
2023-04-06T02:03:33.893Z,98193.22
2023-04-06T02:06:42.910Z,98190.50
2023-04-06T02:09:48.541Z,98192.00
2023-04-06T02:13:00.138Z,98185.84
2023-04-06T02:16:04.192Z,98185.19
2023-04-06T02:19:07.872Z,98183.75
2023-04-06T02:22:11.562Z,98181.47
2023-04-06T02:25:14.451Z,98177.38
2023-04-06T02:28:17.430Z,98181.47
2023-04-06T02:31:20.235Z,98181.31
2023-04-06T02:34:26.464Z,98183.91
2023-04-06T02:37:30.692Z,98175.34
2023-04-06T02:40:35.639Z,98176.34
2023-04-06T02:43:49.516Z,98188.19
2023-04-06T02:47:02.197Z,98178.84
2023-04-06T02:50:06.423Z,98175.34
2023-04-06T02:53:14.404Z,98170.38
2023-04-06T02:56:17.712Z,98176.91
2023-04-06T02:59:25.751Z,98164.13
2023-04-06T03:02:40.960Z,98172.63
2023-04-06T03:05:50.905Z,98173.16
2023-04-06T03:09:00.857Z,98168.75
2023-04-06T03:12:10.439Z,98163.88
2023-04-06T03:15:36.171Z,98165.66
2023-04-06T03:18:48.983Z,98167.34
2023-04-06T03:21:51.810Z,98159.31
2023-04-06T03:24:56.631Z,98167.84
2023-04-06T03:27:59.628Z,98158.88
2023-04-06T03:31:03.110Z,98167.84
2023-04-06T03:34:18.014Z,98163.13
2023-04-06T03:37:20.906Z,98155.63
2023-04-06T03:40:28.820Z,98162.88
2023-04-06T03:43:31.722Z,98158.91
2023-04-06T03:46:34.582Z,98156.69
2023-04-06T03:49:38.616Z,98152.84
2023-04-06T03:52:45.012Z,98161.84
2023-04-06T03:55:48.349Z,98165.63
2023-04-06T03:58:52.046Z,98160.72
2023-04-06T04:01:57.354Z,98172.63
2023-04-06T04:05:00.173Z,98167.22
2023-04-06T04:08:03.195Z,98166.19
2023-04-06T04:11:06.784Z,98171.41
2023-04-06T04:14:09.901Z,98173.78
2023-04-06T04:17:12.731Z,98164.91
2023-04-06T04:20:15.843Z,98167.75
2023-04-06T04:23:18.572Z,98167.88
2023-04-06T04:26:21.386Z,98168.13
2023-04-06T04:29:24.383Z,98173.38
2023-04-06T04:32:30.105Z,98174.22
2023-04-06T04:35:34.961Z,98176.97
2023-04-06T04:38:39.799Z,98174.59
2023-04-06T04:41:43.176Z,98168.50
2023-04-06T04:44:48.632Z,98168.63
2023-04-06T04:47:56.891Z,98167.94
2023-04-06T04:51:05.316Z,98173.38
2023-04-06T04:54:20.542Z,98163.09
2023-04-06T04:57:23.469Z,98169.09
2023-04-06T05:00:28.569Z,98171.97
2023-04-06T05:03:34.669Z,98172.25
2023-04-06T05:06:41.839Z,98160.84
2023-04-06T05:09:46.839Z,98165.00
2023-04-06T05:12:50.930Z,98166.38
2023-04-06T05:15:53.777Z,98165.41
2023-04-06T05:19:09.354Z,98168.59
2023-04-06T05:22:19.061Z,98160.66
2023-04-06T05:25:28.527Z,98158.66
2023-04-06T05:28:35.451Z,98158.66
2023-04-06T05:31:39.228Z,98155.59
2023-04-06T05:34:42.214Z,98159.88
2023-04-06T05:37:45.545Z,98156.28
2023-04-06T05:40:48.806Z,98150.72
2023-04-06T05:43:54.832Z,98147.41
2023-04-06T05:46:59.610Z,98150.03
2023-04-06T05:50:04.671Z,98151.91
2023-04-06T05:53:12.556Z,98152.66
2023-04-06T05:56:20.220Z,98150.94
2023-04-06T05:59:25.261Z,98142.38
2023-04-06T06:02:32.228Z,98138.59
2023-04-06T06:05:35.319Z,98135.53
2023-04-06T06:08:47.145Z,98140.78
2023-04-06T06:11:52.780Z,98134.13
2023-04-06T06:14:59.983Z,98139.38
2023-04-06T06:18:04.828Z,98128.63
2023-04-06T06:21:07.989Z,98130.06
2023-04-06T06:24:11.351Z,98129.94
2023-04-06T06:27:15.799Z,98134.28
2023-04-06T06:30:20.442Z,98121.75
2023-04-06T06:33:27.355Z,98121.59
2023-04-06T06:36:33.234Z,98124.59
2023-04-06T06:39:37.794Z,98115.09
2023-04-06T06:42:41.122Z,98124.25
2023-04-06T06:46:07.793Z,98117.47
2023-04-06T06:49:12.817Z,98117.19
2023-04-06T06:52:16.042Z,98122.41
2023-04-06T06:55:23.022Z,98118.34
2023-04-06T06:58:26.224Z,98120.72
2023-04-06T07:01:30.002Z,98123.19
2023-04-06T07:04:35.402Z,98125.91
2023-04-06T07:07:38.310Z,98121.09
2023-04-06T07:10:41.226Z,98118.47
2023-04-06T07:13:44.451Z,98125.69
2023-04-06T07:16:48.343Z,98122.53
2023-04-06T07:19:51.838Z,98127.56
2023-04-06T07:22:54.755Z,98123.00
2023-04-06T07:25:57.540Z,98123.91
2023-04-06T07:29:00.529Z,98130.94
2023-04-06T07:32:04.280Z,98134.44
2023-04-06T07:35:08.413Z,98129.72
2023-04-06T07:38:11.875Z,98130.09
2023-04-06T07:41:16.242Z,98114.63
2023-04-06T07:44:19.648Z,98119.28
2023-04-06T07:47:24.879Z,98119.84
2023-04-06T07:50:27.886Z,98118.25
2023-04-06T07:53:32.467Z,98110.41
2023-04-06T07:56:35.336Z,98118.25
2023-04-06T07:59:38.515Z,98114.22
2023-04-06T08:02:41.831Z,98127.00
2023-04-06T08:05:44.537Z,98117.16
2023-04-06T08:08:47.393Z,98106.88
2023-04-06T08:11:50.433Z,98096.69
2023-04-06T08:14:53.519Z,98099.00
2023-04-06T08:17:58.541Z,98095.97
2023-04-06T08:21:01.389Z,98100.25
2023-04-06T08:24:04.884Z,98105.78
2023-04-06T08:27:08.083Z,98095.94
2023-04-06T08:30:11.407Z,98094.25
2023-04-06T08:33:14.405Z,98092.97
2023-04-06T08:36:18.312Z,98094.19
2023-04-06T08:39:26.723Z,98081.84
2023-04-06T08:42:33.815Z,98093.34
2023-04-06T08:45:42.118Z,98088.97
2023-04-06T08:48:45.565Z,98095.66
2023-04-06T08:51:48.766Z,98085.28
2023-04-06T08:54:51.787Z,98072.22
2023-04-06T08:57:56.502Z,98079.41
2023-04-06T09:01:00.842Z,98070.38
2023-04-06T09:04:09.515Z,98074.22
2023-04-06T09:07:12.574Z,98072.09
2023-04-06T09:10:16.977Z,98049.81
2023-04-06T09:13:24.050Z,98067.16
2023-04-06T09:16:27.323Z,98059.81
2023-04-06T09:19:30.316Z,98059.53
2023-04-06T09:22:43.529Z,98059.69
2023-04-06T09:25:46.499Z,98057.41
2023-04-06T09:28:54.990Z,98056.84
2023-04-06T09:32:08.493Z,98044.88
2023-04-06T09:35:11.849Z,98043.19
2023-04-06T09:38:14.870Z,98049.63
2023-04-06T09:41:30.083Z,98037.78
2023-04-06T09:44:33.082Z,98041.38
2023-04-06T09:47:38.953Z,98035.28
2023-04-06T09:50:42.118Z,98016.44
2023-04-06T09:53:46.872Z,98037.31
2023-04-06T09:56:58.733Z,98036.59
2023-04-06T10:00:15.844Z,98022.34
2023-04-06T10:03:31.768Z,98031.44
2023-04-06T10:06:36.704Z,98043.50
2023-04-06T10:09:39.858Z,98021.28
2023-04-06T10:12:43.371Z,98038.50
2023-04-06T10:15:46.479Z,98015.06
2023-04-06T10:18:53.671Z,98044.97
2023-04-06T10:21:56.446Z,98015.22
2023-04-06T10:24:59.730Z,98002.66
2023-04-06T10:28:06.709Z,98002.91
2023-04-06T10:31:09.452Z,98032.06
2023-04-06T10:34:12.458Z,98025.00
2023-04-06T10:37:16.278Z,97995.13
2023-04-06T10:40:21.366Z,98001.84
2023-04-06T10:43:24.435Z,98005.91
2023-04-06T10:46:29.023Z,98005.38
2023-04-06T10:49:32.544Z,97990.78
2023-04-06T10:52:35.949Z,98001.69
2023-04-06T10:55:41.818Z,98001.88
2023-04-06T10:58:49.677Z,98007.91
2023-04-06T11:01:52.845Z,97983.56
2023-04-06T11:04:57.925Z,97991.25
2023-04-06T11:08:00.883Z,97985.38
2023-04-06T11:11:10.692Z,97986.22
2023-04-06T11:14:13.634Z,97981.72
2023-04-06T11:17:16.662Z,97983.34
2023-04-06T11:20:20.962Z,97984.72
2023-04-06T11:23:25.901Z,97988.53
2023-04-06T11:26:28.973Z,97990.97
2023-04-06T11:29:33.398Z,97976.66
2023-04-06T11:32:47.139Z,97975.25
2023-04-06T11:35:52.460Z,97978.94
2023-04-06T11:38:55.325Z,97974.75
2023-04-06T11:42:05.558Z,97962.88
2023-04-06T11:45:10.484Z,97972.19
2023-04-06T11:48:21.095Z,97973.66
2023-04-06T11:51:28.649Z,97962.63
2023-04-06T11:54:39.353Z,97964.59
2023-04-06T11:57:43.004Z,97976.06
2023-04-06T12:00:47.699Z,97964.75
2023-04-06T12:03:51.811Z,97974.78
2023-04-06T12:06:54.842Z,97973.50
2023-04-06T12:09:57.997Z,97979.50
2023-04-06T12:13:00.912Z,97967.63
2023-04-06T12:16:03.980Z,97959.84
2023-04-06T12:19:06.858Z,97976.19
2023-04-06T12:22:09.741Z,97977.38
2023-04-06T12:25:13.872Z,97974.38
2023-04-06T12:28:16.977Z,97962.88
2023-04-06T12:31:21.359Z,97958.75
2023-04-06T12:34:24.322Z,97966.94
2023-04-06T12:37:28.412Z,97954.00
2023-04-06T12:40:31.477Z,97961.03
2023-04-06T12:43:34.694Z,97957.44
2023-04-06T12:46:40.882Z,97962.34
2023-04-06T12:49:44.217Z,97958.22
2023-04-06T12:52:47.222Z,97955.84
2023-04-06T12:55:49.921Z,97955.88
2023-04-06T12:58:53.838Z,97959.75
2023-04-06T13:01:56.767Z,97960.78
2023-04-06T13:04:59.723Z,97951.59
2023-04-06T13:08:02.496Z,97946.59
2023-04-06T13:11:06.377Z,97947.09
2023-04-06T13:14:09.254Z,97946.16
2023-04-06T13:17:12.456Z,97941.66
2023-04-06T13:20:15.877Z,97960.13
2023-04-06T13:23:18.711Z,97948.63
2023-04-06T13:26:22.822Z,97948.66
2023-04-06T13:29:26.015Z,97948.06
2023-04-06T13:32:29.113Z,97941.66
2023-04-06T13:35:31.842Z,97933.25
2023-04-06T13:38:34.963Z,97936.00
2023-04-06T13:41:37.944Z,97932.91
2023-04-06T13:44:40.794Z,97931.03
2023-04-06T13:47:43.769Z,97931.25
2023-04-06T13:50:47.224Z,97938.72
2023-04-06T13:53:53.816Z,97941.19
2023-04-06T13:56:58.273Z,97936.91
2023-04-06T14:00:02.891Z,97924.84
2023-04-06T14:03:08.211Z,97931.59
2023-04-06T14:06:20.679Z,97935.50
2023-04-06T14:09:31.299Z,97936.94
2023-04-06T14:12:34.177Z,97944.25
2023-04-06T14:15:37.378Z,97948.53
2023-04-06T14:18:40.219Z,97931.75
2023-04-06T14:21:44.990Z,97943.09
2023-04-06T14:24:48.321Z,97953.31
2023-04-06T14:27:51.921Z,97954.34
2023-04-06T14:30:54.824Z,97958.63
2023-04-06T14:33:58.429Z,97980.75
2023-04-06T14:37:01.313Z,97979.91
2023-04-06T14:40:04.969Z,97963.19
2023-04-06T14:43:07.795Z,97960.44
2023-04-06T14:46:10.843Z,97961.00
2023-04-06T14:49:14.297Z,97962.56
2023-04-06T14:52:17.597Z,97968.84
2023-04-06T14:55:20.352Z,97971.75
2023-04-06T14:58:24.309Z,97960.44
2023-04-06T15:01:27.061Z,97968.34
2023-04-06T15:07:34.122Z,97977.84
2023-04-06T15:10:37.280Z,97966.41
2023-04-06T15:13:41.369Z,97972.25
2023-04-06T15:16:44.186Z,97967.69
2023-04-06T15:19:46.993Z,97970.41
2023-04-06T15:22:49.915Z,97972.66
2023-04-06T15:25:54.922Z,97970.38
2023-04-06T15:28:57.725Z,97984.94
2023-04-06T15:32:00.621Z,97982.44
2023-04-06T15:35:10.823Z,97990.13
2023-04-06T15:38:13.889Z,97992.41
2023-04-06T15:41:16.888Z,97998.78
2023-04-06T15:44:20.483Z,97994.00
2023-04-06T15:47:24.428Z,97989.56
2023-04-06T15:50:28.420Z,97992.09
2023-04-06T15:53:31.556Z,98005.63
2023-04-06T15:56:34.613Z,97990.22
2023-04-06T15:59:37.515Z,97997.81
2023-04-06T16:02:40.536Z,97985.94
2023-04-06T16:05:48.888Z,97991.75
2023-04-06T16:08:59.239Z,97998.75
2023-04-06T16:12:02.085Z,97998.53
2023-04-06T16:15:05.406Z,98002.63
2023-04-06T16:18:08.154Z,97998.88
2023-04-06T16:21:18.592Z,97998.22
2023-04-06T16:24:22.410Z,98009.13
2023-04-06T16:27:25.162Z,98004.69
2023-04-06T16:30:30.508Z,98009.97
2023-04-06T16:33:33.229Z,98008.22
2023-04-06T16:36:36.072Z,98011.06
2023-04-06T16:39:38.876Z,98009.25
2023-04-06T16:42:45.031Z,98013.22
2023-04-06T16:45:51.733Z,98013.03
2023-04-06T16:48:55.179Z,98010.63
2023-04-06T16:52:02.194Z,98016.78
2023-04-06T16:55:05.709Z,98023.44
2023-04-06T16:58:08.887Z,98003.50
2023-04-06T17:01:41.445Z,98014.09
2023-04-06T17:04:44.906Z,98015.78
2023-04-06T17:07:47.726Z,98014.94
2023-04-06T17:10:59.251Z,98013.75
2023-04-06T17:14:05.727Z,98017.34
2023-04-06T17:17:08.748Z,98027.75
2023-04-06T17:20:11.807Z,98023.16
2023-04-06T17:23:15.668Z,98025.44
2023-04-06T17:26:18.604Z,98022.03
2023-04-06T17:29:21.385Z,98026.97
2023-04-06T17:32:24.117Z,98022.56
2023-04-06T17:35:27.270Z,98029.56
2023-04-06T17:38:30.166Z,98029.75
2023-04-06T17:41:35.017Z,98029.19
2023-04-06T17:44:38.928Z,98026.94
2023-04-06T17:47:41.820Z,98034.88
2023-04-06T17:50:45.260Z,98033.94
2023-04-06T17:53:48.258Z,98025.34
2023-04-06T17:56:52.217Z,98034.31
2023-04-06T17:59:55.035Z,98033.03
2023-04-06T18:02:57.892Z,98039.97
2023-04-06T18:06:15.274Z,98043.19
2023-04-06T18:09:18.298Z,98041.09
2023-04-06T18:12:21.072Z,98039.59
2023-04-06T18:15:24.172Z,98035.63
2023-04-06T18:18:28.652Z,98042.63
2023-04-06T18:21:34.846Z,98034.31
2023-04-06T18:24:42.541Z,98030.44
2023-04-06T18:27:46.378Z,98037.28
2023-04-06T18:30:49.356Z,98038.75
2023-04-06T18:33:53.859Z,98040.44
2023-04-06T18:36:57.538Z,98037.09
2023-04-06T18:40:01.347Z,98044.94
2023-04-06T18:43:07.287Z,98037.84
2023-04-06T18:46:15.724Z,98030.66
2023-04-06T18:49:18.759Z,98043.56
2023-04-06T18:52:21.652Z,98041.56
2023-04-06T18:55:25.856Z,98036.06
2023-04-06T18:58:28.865Z,98036.94
2023-04-06T19:01:32.804Z,98036.94
2023-04-06T19:04:35.899Z,98039.53
2023-04-06T19:07:39.959Z,98037.72
2023-04-06T19:10:42.987Z,98039.38
2023-04-06T19:13:50.388Z,98037.88
2023-04-06T19:16:53.472Z,98033.28
2023-04-06T19:19:58.035Z,98025.38
2023-04-06T19:23:01.035Z,98033.13
2023-04-06T19:26:03.898Z,98032.38
2023-04-06T19:29:07.130Z,98031.34
2023-04-06T19:32:12.018Z,98021.84
2023-04-06T19:35:14.993Z,98023.50
2023-04-06T19:38:17.855Z,98015.69
2023-04-06T19:41:22.042Z,98028.91
2023-04-06T19:44:27.112Z,98020.00
2023-04-06T19:47:30.348Z,98014.47
2023-04-06T19:50:33.322Z,98012.81
2023-04-06T19:53:36.981Z,98015.41
2023-04-06T19:56:40.190Z,98020.56
2023-04-06T19:59:43.079Z,98012.06
2023-04-06T20:02:46.289Z,98012.81
2023-04-06T20:05:49.469Z,98008.94
2023-04-06T20:08:52.350Z,98011.16
2023-04-06T20:11:55.148Z,98014.81
2023-04-06T20:14:58.286Z,98007.34
2023-04-06T20:18:01.224Z,98006.16
2023-04-06T20:21:04.036Z,98013.09
2023-04-06T20:24:07.362Z,98008.00
2023-04-06T20:27:10.192Z,98016.56
2023-04-06T20:30:15.338Z,98002.81
2023-04-06T20:33:18.253Z,98007.34
2023-04-06T20:36:22.284Z,97997.47
2023-04-06T20:39:27.748Z,97996.19
2023-04-06T20:42:30.612Z,97990.66
2023-04-06T20:45:38.879Z,97989.06
2023-04-06T20:48:41.721Z,97988.97
2023-04-06T20:51:46.195Z,97978.63
2023-04-06T20:54:51.026Z,97987.25
2023-04-06T20:57:53.973Z,97988.78
2023-04-06T21:00:58.148Z,97991.31
2023-04-06T21:04:02.656Z,97993.78
2023-04-06T21:07:07.555Z,97980.78
2023-04-06T21:10:10.813Z,97985.13
2023-04-06T21:13:13.696Z,97984.38
2023-04-06T21:16:16.524Z,97984.94
2023-04-06T21:19:19.510Z,97997.66
2023-04-06T21:22:23.541Z,97987.31
2023-04-06T21:25:26.328Z,97982.16
2023-04-06T21:28:29.391Z,97976.81
2023-04-06T21:31:32.402Z,97972.91
2023-04-06T21:34:35.175Z,97971.34
2023-04-06T21:37:38.168Z,97979.78
2023-04-06T21:40:41.147Z,97974.03
2023-04-06T21:43:43.984Z,97969.44
2023-04-06T21:46:46.796Z,97962.94
2023-04-06T21:49:49.621Z,97958.53
2023-04-06T21:52:52.361Z,97951.34
2023-04-06T21:55:55.146Z,97947.06
2023-04-06T21:58:57.923Z,97949.00
2023-04-06T22:02:00.764Z,97950.03
2023-04-06T22:05:04.657Z,97937.09
2023-04-06T22:08:09.536Z,97939.69
2023-04-06T22:11:13.907Z,97937.09
2023-04-06T22:14:18.163Z,97935.38
2023-04-06T22:17:21.105Z,97943.31
2023-04-06T22:20:23.913Z,97939.78
2023-04-06T22:23:26.771Z,97932.97
2023-04-06T22:26:29.482Z,97931.09
2023-04-06T22:29:32.194Z,97930.56
2023-04-06T22:32:35.125Z,97930.28
2023-04-06T22:35:38.373Z,97940.16
2023-04-06T22:38:41.258Z,97935.34
2023-04-06T22:41:44.070Z,97937.47
2023-04-06T22:44:46.820Z,97929.16
2023-04-06T22:47:49.553Z,97938.94
2023-04-06T22:50:52.415Z,97927.94
2023-04-06T22:53:55.235Z,97936.25
2023-04-06T22:56:57.892Z,97932.75
2023-04-06T23:00:00.999Z,97936.16
2023-04-06T23:03:03.881Z,97927.78
2023-04-06T23:06:06.918Z,97924.53
2023-04-06T23:09:09.699Z,97928.69
2023-04-06T23:12:12.353Z,97920.56
2023-04-06T23:15:15.082Z,97915.22
2023-04-06T23:18:17.831Z,97914.22
2023-04-06T23:21:20.602Z,97905.22
2023-04-06T23:24:23.696Z,97910.78
2023-04-06T23:27:26.476Z,97907.34
2023-04-06T23:30:29.223Z,97909.94
2023-04-06T23:33:31.823Z,97906.28
2023-04-06T23:36:34.618Z,97895.47
2023-04-06T23:39:37.384Z,97897.78
2023-04-06T23:42:40.151Z,97899.81
2023-04-06T23:45:43.199Z,97890.19
2023-04-06T23:48:46.036Z,97887.63
2023-04-06T23:51:48.747Z,97892.72
2023-04-06T23:54:51.488Z,97894.44
2023-04-06T23:57:54.164Z,97896.38
